createdAt,value
2022-12-06T00:00:15.277Z,1004.90
2022-12-06T00:01:15.271Z,1004.91
2022-12-06T00:02:15.548Z,1004.90
2022-12-06T00:03:30.884Z,1004.91
2022-12-06T00:04:15.269Z,1004.88
2022-12-06T00:05:15.232Z,1004.91
2022-12-06T00:06:15.234Z,1004.87
2022-12-06T00:07:18.231Z,1004.86
2022-12-06T00:08:15.273Z,1004.86
2022-12-06T00:09:15.206Z,1004.89
2022-12-06T00:10:16.187Z,1004.86
2022-12-06T00:11:16.182Z,1004.81
2022-12-06T00:12:16.427Z,1004.85
2022-12-06T00:13:18.163Z,1004.86
2022-12-06T00:14:15.392Z,1004.85
2022-12-06T00:15:16.379Z,1004.85
2022-12-06T00:16:15.397Z,1004.80
2022-12-06T00:17:16.141Z,1004.81
2022-12-06T00:18:15.129Z,1004.85
2022-12-06T00:19:15.103Z,1004.80
2022-12-06T00:20:15.340Z,1004.80
2022-12-06T00:21:16.083Z,1004.82
2022-12-06T00:22:15.278Z,1004.75
2022-12-06T00:23:15.041Z,1004.73
2022-12-06T00:24:15.085Z,1004.76
2022-12-06T00:25:16.053Z,1004.73
2022-12-06T00:26:16.016Z,1004.70
2022-12-06T00:27:16.238Z,1004.72
2022-12-06T00:28:15.031Z,1004.70
2022-12-06T00:29:16.237Z,1004.68
2022-12-06T00:30:15.224Z,1004.66
2022-12-06T00:31:15.180Z,1004.63
2022-12-06T00:32:19.448Z,1004.69
2022-12-06T00:33:15.949Z,1004.64
2022-12-06T00:34:15.974Z,1004.67
2022-12-06T00:35:14.947Z,1004.69
2022-12-06T00:36:14.907Z,1004.66
2022-12-06T00:37:15.115Z,1004.70
2022-12-06T00:38:14.900Z,1004.69
2022-12-06T00:39:16.098Z,1004.67
2022-12-06T00:40:15.155Z,1004.68
2022-12-06T00:41:14.851Z,1004.66
2022-12-06T00:42:17.881Z,1004.65
2022-12-06T00:43:15.057Z,1004.66
2022-12-06T00:44:14.834Z,1004.64
2022-12-06T00:45:22.113Z,1004.58
2022-12-06T00:46:15.093Z,1004.62
2022-12-06T00:47:30.111Z,1004.61
2022-12-06T00:48:17.836Z,1004.54
2022-12-06T00:49:16.041Z,1004.60
2022-12-06T00:50:15.006Z,1004.63
2022-12-06T00:51:14.767Z,1004.60
2022-12-06T00:52:15.003Z,1004.60
2022-12-06T00:53:15.949Z,1004.61
2022-12-06T00:54:15.734Z,1004.62
2022-12-06T00:55:14.705Z,1004.65
2022-12-06T00:56:14.719Z,1004.60
2022-12-06T00:57:14.716Z,1004.65
2022-12-06T00:58:15.712Z,1004.63
2022-12-06T00:59:15.685Z,1004.59
2022-12-06T01:00:15.663Z,1004.59
2022-12-06T01:01:14.910Z,1004.58
2022-12-06T01:02:14.896Z,1004.59
2022-12-06T01:03:14.776Z,1004.59
2022-12-06T01:04:15.641Z,1004.65
2022-12-06T01:05:15.843Z,1004.60
2022-12-06T01:06:14.610Z,1004.55
2022-12-06T01:07:14.585Z,1004.60
2022-12-06T01:08:14.668Z,1004.57
2022-12-06T01:09:14.558Z,1004.56
2022-12-06T01:10:14.788Z,1004.55
2022-12-06T01:11:14.544Z,1004.56
2022-12-06T01:12:14.788Z,1004.52
2022-12-06T01:13:14.526Z,1004.53
2022-12-06T01:14:14.545Z,1004.55
2022-12-06T01:15:14.486Z,1004.49
2022-12-06T01:16:15.544Z,1004.58
2022-12-06T01:17:15.718Z,1004.52
2022-12-06T01:18:14.742Z,1004.55
2022-12-06T01:19:15.490Z,1004.54
2022-12-06T01:20:15.492Z,1004.56
2022-12-06T01:21:14.438Z,1004.62
2022-12-06T01:22:14.449Z,1004.60
2022-12-06T01:23:15.452Z,1004.62
2022-12-06T01:24:14.667Z,1004.62
2022-12-06T01:25:15.429Z,1004.61
2022-12-06T01:26:15.618Z,1004.63
2022-12-06T01:27:14.391Z,1004.64
2022-12-06T01:28:15.391Z,1004.65
2022-12-06T01:29:14.370Z,1004.64
2022-12-06T01:30:14.620Z,1004.66
2022-12-06T01:31:17.666Z,1004.65
2022-12-06T01:32:14.344Z,1004.66
2022-12-06T01:33:14.542Z,1004.61
2022-12-06T01:34:14.568Z,1004.60
2022-12-06T01:35:14.508Z,1004.62
2022-12-06T01:36:14.291Z,1004.59
2022-12-06T01:37:21.407Z,1004.57
2022-12-06T01:38:15.293Z,1004.61
2022-12-06T01:39:14.289Z,1004.61
2022-12-06T01:40:14.252Z,1004.61
2022-12-06T01:41:14.243Z,1004.59
2022-12-06T01:42:15.260Z,1004.56
2022-12-06T01:43:15.468Z,1004.59
2022-12-06T01:44:35.230Z,1004.62
2022-12-06T01:45:21.660Z,1004.61
2022-12-06T01:46:15.250Z,1004.60
2022-12-06T01:47:17.417Z,1004.60
2022-12-06T01:48:15.161Z,1004.66
2022-12-06T01:49:14.150Z,1004.60
2022-12-06T01:50:14.158Z,1004.67
2022-12-06T01:51:14.137Z,1004.63
2022-12-06T01:52:14.134Z,1004.66
2022-12-06T01:53:14.102Z,1004.65
2022-12-06T01:54:15.099Z,1004.66
2022-12-06T01:55:14.122Z,1004.68
2022-12-06T01:56:17.109Z,1004.67
2022-12-06T01:57:17.098Z,1004.66
2022-12-06T01:58:14.071Z,1004.68
2022-12-06T01:59:21.345Z,1004.65
2022-12-06T02:00:14.168Z,1004.65
2022-12-06T02:01:14.082Z,1004.69
2022-12-06T02:02:14.054Z,1004.66
2022-12-06T02:03:15.057Z,1004.66
2022-12-06T02:04:13.992Z,1004.61
2022-12-06T02:05:14.187Z,1004.60
2022-12-06T02:06:13.986Z,1004.59
2022-12-06T02:07:15.195Z,1004.61
2022-12-06T02:08:15.012Z,1004.54
2022-12-06T02:09:13.971Z,1004.53
2022-12-06T02:10:16.940Z,1004.55
2022-12-06T02:11:13.946Z,1004.54
2022-12-06T02:12:14.176Z,1004.55
2022-12-06T02:13:13.919Z,1004.51
2022-12-06T02:14:13.884Z,1004.54
2022-12-06T02:15:14.147Z,1004.52
2022-12-06T02:16:16.934Z,1004.51
2022-12-06T02:17:13.925Z,1004.48
2022-12-06T02:18:16.884Z,1004.49
2022-12-06T02:19:13.834Z,1004.44
2022-12-06T02:20:16.820Z,1004.44
2022-12-06T02:21:13.816Z,1004.41
2022-12-06T02:22:13.825Z,1004.42
2022-12-06T02:23:14.027Z,1004.43
2022-12-06T02:24:16.854Z,1004.43
2022-12-06T02:25:14.811Z,1004.45
2022-12-06T02:26:13.759Z,1004.48
2022-12-06T02:27:13.767Z,1004.43
2022-12-06T02:28:13.929Z,1004.45
2022-12-06T02:29:13.728Z,1004.47
2022-12-06T02:30:21.122Z,1004.41
2022-12-06T02:31:15.064Z,1004.43
2022-12-06T02:32:13.935Z,1004.41
2022-12-06T02:33:13.724Z,1004.40
2022-12-06T02:34:13.664Z,1004.35
2022-12-06T02:35:13.677Z,1004.34
2022-12-06T02:36:13.677Z,1004.36
2022-12-06T02:37:13.652Z,1004.32
2022-12-06T02:38:13.845Z,1004.32
2022-12-06T02:39:14.647Z,1004.34
2022-12-06T02:40:21.024Z,1004.34
2022-12-06T02:41:14.649Z,1004.36
2022-12-06T02:42:13.598Z,1004.36
2022-12-06T02:43:13.626Z,1004.36
2022-12-06T02:44:13.591Z,1004.33
2022-12-06T02:45:14.613Z,1004.30
2022-12-06T02:46:16.650Z,1004.28
2022-12-06T02:47:13.556Z,1004.31
2022-12-06T02:48:13.561Z,1004.30
2022-12-06T02:49:20.728Z,1004.30
2022-12-06T02:50:13.504Z,1004.30
2022-12-06T02:51:14.522Z,1004.31
2022-12-06T02:52:13.710Z,1004.27
2022-12-06T02:53:13.503Z,1004.29
2022-12-06T02:54:13.469Z,1004.27
2022-12-06T02:55:13.446Z,1004.30
2022-12-06T02:56:13.668Z,1004.31
2022-12-06T02:57:34.437Z,1004.33
2022-12-06T02:58:13.436Z,1004.35
2022-12-06T02:59:13.426Z,1004.28
2022-12-06T03:00:13.431Z,1004.30
2022-12-06T03:01:13.457Z,1004.29
2022-12-06T03:02:13.452Z,1004.25
2022-12-06T03:03:14.391Z,1004.27
2022-12-06T03:04:13.378Z,1004.27
2022-12-06T03:05:13.357Z,1004.30
2022-12-06T03:06:34.349Z,1004.27
2022-12-06T03:07:16.372Z,1004.27
2022-12-06T03:08:14.447Z,1004.26
2022-12-06T03:09:13.597Z,1004.24
2022-12-06T03:10:16.311Z,1004.20
2022-12-06T03:11:13.324Z,1004.24
2022-12-06T03:12:16.308Z,1004.21
2022-12-06T03:13:16.280Z,1004.19
2022-12-06T03:14:14.839Z,1004.22
2022-12-06T03:15:13.264Z,1004.16
2022-12-06T03:16:13.504Z,1004.19
2022-12-06T03:17:16.297Z,1004.22
2022-12-06T03:18:13.201Z,1004.21
2022-12-06T03:19:13.243Z,1004.19
2022-12-06T03:20:14.429Z,1004.20
2022-12-06T03:21:13.186Z,1004.22
2022-12-06T03:22:13.167Z,1004.21
2022-12-06T03:23:14.179Z,1004.24
2022-12-06T03:24:13.138Z,1004.24
2022-12-06T03:25:13.187Z,1004.27
2022-12-06T03:26:13.120Z,1004.25
2022-12-06T03:27:13.148Z,1004.23
2022-12-06T03:28:20.287Z,1004.21
2022-12-06T03:29:14.143Z,1004.25
2022-12-06T03:30:13.092Z,1004.20
2022-12-06T03:31:13.118Z,1004.20
2022-12-06T03:32:13.099Z,1004.17
2022-12-06T03:33:13.077Z,1004.17
2022-12-06T03:34:14.303Z,1004.17
2022-12-06T03:35:13.076Z,1004.17
2022-12-06T03:36:16.080Z,1004.14
2022-12-06T03:37:13.048Z,1004.14
2022-12-06T03:38:13.005Z,1004.18
2022-12-06T03:39:14.033Z,1004.15
2022-12-06T03:40:12.998Z,1004.16
2022-12-06T03:41:12.974Z,1004.13
2022-12-06T03:42:13.201Z,1004.15
2022-12-06T03:43:16.028Z,1004.13
2022-12-06T03:44:12.919Z,1004.13
2022-12-06T03:45:13.028Z,1004.14
2022-12-06T03:46:13.323Z,1004.12
2022-12-06T03:47:16.039Z,1004.15
2022-12-06T03:48:16.172Z,1004.16
2022-12-06T03:49:15.934Z,1004.10
2022-12-06T03:50:12.895Z,1004.13
2022-12-06T03:51:12.876Z,1004.10
2022-12-06T03:52:13.863Z,1004.11
2022-12-06T03:53:12.888Z,1004.09
2022-12-06T03:54:13.073Z,1004.08
2022-12-06T03:55:12.863Z,1004.07
2022-12-06T03:56:12.811Z,1004.07
2022-12-06T03:57:15.827Z,1004.04
2022-12-06T03:58:36.819Z,1004.06
2022-12-06T03:59:13.809Z,1004.07
2022-12-06T04:00:12.790Z,1004.11
2022-12-06T04:01:12.815Z,1004.07
2022-12-06T04:02:12.859Z,1004.09
2022-12-06T04:03:12.737Z,1004.05
2022-12-06T04:04:12.799Z,1004.07
2022-12-06T04:05:12.945Z,1004.08
2022-12-06T04:06:13.742Z,1004.03
2022-12-06T04:07:12.715Z,1004.05
2022-12-06T04:08:15.806Z,1004.01
2022-12-06T04:09:15.953Z,1004.06
2022-12-06T04:10:12.931Z,1004.03
2022-12-06T04:11:12.700Z,1004.01
2022-12-06T04:12:15.942Z,1004.01
2022-12-06T04:13:18.156Z,1004.01
2022-12-06T04:14:13.615Z,1004.03
2022-12-06T04:15:12.661Z,1004.02
2022-12-06T04:16:12.661Z,1004.04
2022-12-06T04:17:12.616Z,1004.01
2022-12-06T04:18:15.611Z,1003.97
2022-12-06T04:19:15.880Z,1003.97
2022-12-06T04:20:12.808Z,1003.99
2022-12-06T04:21:13.570Z,1003.99
2022-12-06T04:22:12.555Z,1003.97
2022-12-06T04:23:15.813Z,1003.95
2022-12-06T04:24:12.527Z,1003.93
2022-12-06T04:25:13.538Z,1003.92
2022-12-06T04:26:12.768Z,1003.95
2022-12-06T04:27:12.502Z,1003.87
2022-12-06T04:28:12.488Z,1003.88
2022-12-06T04:29:15.528Z,1003.91
2022-12-06T04:30:15.731Z,1003.88
2022-12-06T04:31:15.842Z,1003.87
2022-12-06T04:32:13.450Z,1003.91
2022-12-06T04:33:13.464Z,1003.91
2022-12-06T04:34:12.660Z,1003.86
2022-12-06T04:35:12.420Z,1003.89
2022-12-06T04:36:12.401Z,1003.88
2022-12-06T04:37:12.399Z,1003.87
2022-12-06T04:38:12.385Z,1003.83
2022-12-06T04:39:17.604Z,1003.84
2022-12-06T04:40:14.611Z,1003.89
2022-12-06T04:41:12.350Z,1003.88
2022-12-06T04:42:12.350Z,1003.83
2022-12-06T04:43:12.342Z,1003.85
2022-12-06T04:44:12.559Z,1003.85
2022-12-06T04:45:13.325Z,1003.84
2022-12-06T04:46:15.407Z,1003.85
2022-12-06T04:47:15.337Z,1003.85
2022-12-06T04:48:13.541Z,1003.82
2022-12-06T04:49:12.329Z,1003.80
2022-12-06T04:50:12.253Z,1003.79
2022-12-06T04:51:12.242Z,1003.76
2022-12-06T04:52:12.226Z,1003.75
2022-12-06T04:53:12.224Z,1003.75
2022-12-06T04:54:12.222Z,1003.70
2022-12-06T04:55:12.223Z,1003.77
2022-12-06T04:56:12.180Z,1003.69
2022-12-06T04:57:15.228Z,1003.73
2022-12-06T04:58:15.223Z,1003.73
2022-12-06T04:59:15.237Z,1003.74
2022-12-06T05:00:12.174Z,1003.72
2022-12-06T05:01:19.324Z,1003.69
2022-12-06T05:02:12.135Z,1003.74
2022-12-06T05:03:12.140Z,1003.71
2022-12-06T05:04:15.176Z,1003.73
2022-12-06T05:05:12.140Z,1003.72
2022-12-06T05:06:12.330Z,1003.77
2022-12-06T05:07:13.121Z,1003.73
2022-12-06T05:08:15.159Z,1003.73
2022-12-06T05:09:12.302Z,1003.77
2022-12-06T05:10:12.083Z,1003.77
2022-12-06T05:11:19.590Z,1003.82
2022-12-06T05:12:12.024Z,1003.80
2022-12-06T05:13:12.014Z,1003.82
2022-12-06T05:14:12.008Z,1003.84
2022-12-06T05:15:14.639Z,1003.81
2022-12-06T05:16:12.055Z,1003.81
2022-12-06T05:17:12.215Z,1003.82
2022-12-06T05:18:11.967Z,1003.79
2022-12-06T05:19:12.988Z,1003.82
2022-12-06T05:20:11.980Z,1003.83
2022-12-06T05:21:12.153Z,1003.79
2022-12-06T05:22:11.925Z,1003.79
2022-12-06T05:23:11.915Z,1003.80
2022-12-06T05:24:11.920Z,1003.77
2022-12-06T05:25:11.912Z,1003.77
2022-12-06T05:26:11.897Z,1003.76
2022-12-06T05:27:11.881Z,1003.73
2022-12-06T05:28:11.850Z,1003.77
2022-12-06T05:29:14.886Z,1003.73
2022-12-06T05:30:12.874Z,1003.76
2022-12-06T05:31:15.172Z,1003.74
2022-12-06T05:32:12.108Z,1003.76
2022-12-06T05:33:15.107Z,1003.73
2022-12-06T05:34:13.024Z,1003.74
2022-12-06T05:35:11.808Z,1003.78
2022-12-06T05:36:12.800Z,1003.81
2022-12-06T05:37:27.126Z,1003.83
2022-12-06T05:38:12.005Z,1003.81
2022-12-06T05:39:11.768Z,1003.79
2022-12-06T05:40:11.725Z,1003.80
2022-12-06T05:41:14.779Z,1003.80
2022-12-06T05:42:20.409Z,1003.81
2022-12-06T05:43:12.729Z,1003.78
2022-12-06T05:44:11.918Z,1003.83
2022-12-06T05:45:14.727Z,1003.83
2022-12-06T05:46:14.874Z,1003.80
2022-12-06T05:47:12.687Z,1003.82
2022-12-06T05:48:11.676Z,1003.82
2022-12-06T05:49:14.682Z,1003.82
2022-12-06T05:50:12.630Z,1003.81
2022-12-06T05:51:11.618Z,1003.78
2022-12-06T05:52:11.610Z,1003.78
2022-12-06T05:53:11.609Z,1003.78
2022-12-06T05:54:11.637Z,1003.78
2022-12-06T05:55:11.594Z,1003.78
2022-12-06T05:56:11.597Z,1003.80
2022-12-06T05:57:11.805Z,1003.76
2022-12-06T05:58:11.536Z,1003.81
2022-12-06T05:59:11.538Z,1003.82
2022-12-06T06:00:11.697Z,1003.84
2022-12-06T06:01:18.991Z,1003.86
2022-12-06T06:02:11.651Z,1003.86
2022-12-06T06:03:14.598Z,1003.91
2022-12-06T06:04:18.725Z,1003.90
2022-12-06T06:05:11.506Z,1003.88
2022-12-06T06:06:11.650Z,1003.84
2022-12-06T06:07:11.474Z,1003.83
2022-12-06T06:08:11.700Z,1003.85
2022-12-06T06:09:12.694Z,1003.86
2022-12-06T06:10:11.443Z,1003.81
2022-12-06T06:11:11.410Z,1003.82
2022-12-06T06:12:12.949Z,1003.82
2022-12-06T06:13:11.409Z,1003.81
2022-12-06T06:14:14.408Z,1003.81
2022-12-06T06:15:11.390Z,1003.81
2022-12-06T06:16:11.400Z,1003.79
2022-12-06T06:17:26.914Z,1003.82
2022-12-06T06:18:11.368Z,1003.85
2022-12-06T06:19:11.332Z,1003.83
2022-12-06T06:20:11.333Z,1003.81
2022-12-06T06:21:11.335Z,1003.81
2022-12-06T06:22:18.488Z,1003.84
2022-12-06T06:23:12.324Z,1003.84
2022-12-06T06:24:14.295Z,1003.85
2022-12-06T06:25:18.474Z,1003.87
2022-12-06T06:26:11.305Z,1003.87
2022-12-06T06:27:14.291Z,1003.87
2022-12-06T06:28:14.278Z,1003.88
2022-12-06T06:29:11.236Z,1003.90
2022-12-06T06:30:12.442Z,1003.91
2022-12-06T06:31:11.206Z,1003.92
2022-12-06T06:32:11.274Z,1003.91
2022-12-06T06:33:12.207Z,1003.92
2022-12-06T06:34:14.210Z,1003.89
2022-12-06T06:35:11.164Z,1003.89
2022-12-06T06:36:14.179Z,1003.94
2022-12-06T06:37:11.410Z,1003.94
2022-12-06T06:38:11.137Z,1003.90
2022-12-06T06:39:11.122Z,1003.91
2022-12-06T06:40:18.457Z,1003.92
2022-12-06T06:41:14.159Z,1003.94
2022-12-06T06:42:11.340Z,1003.91
2022-12-06T06:43:11.086Z,1003.89
2022-12-06T06:44:11.075Z,1003.92
2022-12-06T06:45:18.262Z,1003.90
2022-12-06T06:46:11.345Z,1003.91
2022-12-06T06:47:12.090Z,1003.93
2022-12-06T06:48:11.271Z,1003.93
2022-12-06T06:49:11.014Z,1003.92
2022-12-06T06:50:11.009Z,1003.94
2022-12-06T06:51:12.251Z,1003.92
2022-12-06T06:52:14.029Z,1003.93
2022-12-06T06:53:11.018Z,1003.94
2022-12-06T06:54:10.953Z,1003.97
2022-12-06T06:55:11.211Z,1003.99
2022-12-06T06:56:11.972Z,1003.95
2022-12-06T06:57:17.150Z,1003.96
2022-12-06T06:58:11.959Z,1003.98
2022-12-06T06:59:26.602Z,1003.95
2022-12-06T07:00:10.890Z,1003.98
2022-12-06T07:01:10.936Z,1003.97
2022-12-06T07:02:10.893Z,1004.00
2022-12-06T07:03:10.884Z,1004.03
2022-12-06T07:04:10.873Z,1004.02
2022-12-06T07:05:10.855Z,1003.96
2022-12-06T07:06:10.840Z,1003.99
2022-12-06T07:07:10.826Z,1004.02
2022-12-06T07:08:11.122Z,1004.00
2022-12-06T07:09:10.842Z,1004.01
2022-12-06T07:10:10.825Z,1004.00
2022-12-06T07:11:13.822Z,1004.06
2022-12-06T07:12:10.791Z,1004.03
2022-12-06T07:13:10.780Z,1004.07
2022-12-06T07:14:10.769Z,1004.04
2022-12-06T07:15:10.748Z,1004.03
2022-12-06T07:16:10.734Z,1004.02
2022-12-06T07:17:10.785Z,1004.02
2022-12-06T07:18:10.739Z,1004.03
2022-12-06T07:19:10.738Z,1004.00
2022-12-06T07:20:10.687Z,1004.01
2022-12-06T07:21:10.699Z,1004.02
2022-12-06T07:22:10.668Z,1004.03
2022-12-06T07:23:11.680Z,1004.05
2022-12-06T07:24:10.664Z,1004.04
2022-12-06T07:25:10.652Z,1004.04
2022-12-06T07:26:10.628Z,1004.05
2022-12-06T07:27:10.646Z,1004.06
2022-12-06T07:28:10.606Z,1004.06
2022-12-06T07:29:10.620Z,1004.04
2022-12-06T07:30:14.418Z,1004.00
2022-12-06T07:31:11.616Z,1004.00
2022-12-06T07:32:10.572Z,1004.04
2022-12-06T07:33:10.584Z,1004.01
2022-12-06T07:34:10.570Z,1003.99
2022-12-06T07:35:10.549Z,1003.95
2022-12-06T07:36:12.647Z,1004.03
2022-12-06T07:37:10.533Z,1004.03
2022-12-06T07:38:10.499Z,1004.00
2022-12-06T07:39:14.684Z,1004.02
2022-12-06T07:40:10.511Z,1004.02
2022-12-06T07:41:10.488Z,1004.01
2022-12-06T07:42:10.462Z,1004.04
2022-12-06T07:43:10.473Z,1004.06
2022-12-06T07:44:10.444Z,1004.05
2022-12-06T07:45:10.435Z,1004.03
2022-12-06T07:46:10.479Z,1004.07
2022-12-06T07:47:10.418Z,1004.09
2022-12-06T07:48:10.457Z,1004.08
2022-12-06T07:49:10.399Z,1004.09
2022-12-06T07:50:15.947Z,1004.06
2022-12-06T07:51:11.420Z,1004.07
2022-12-06T07:52:10.354Z,1004.07
2022-12-06T07:53:10.354Z,1004.08
2022-12-06T07:54:10.355Z,1004.07
2022-12-06T07:55:10.341Z,1004.07
2022-12-06T07:56:10.334Z,1004.07
2022-12-06T07:57:10.352Z,1004.06
2022-12-06T07:58:10.313Z,1004.06
2022-12-06T07:59:10.304Z,1004.00
2022-12-06T08:00:10.273Z,1003.99
2022-12-06T08:01:10.337Z,1004.04
2022-12-06T08:02:10.308Z,1004.02
2022-12-06T08:03:10.254Z,1004.05
2022-12-06T08:04:10.316Z,1004.07
2022-12-06T08:05:10.232Z,1004.06
2022-12-06T08:06:10.209Z,1004.06
2022-12-06T08:07:10.231Z,1004.09
2022-12-06T08:08:10.278Z,1004.05
2022-12-06T08:09:10.204Z,1004.05
2022-12-06T08:10:10.165Z,1004.10
2022-12-06T08:11:10.193Z,1004.10
2022-12-06T08:12:10.181Z,1004.08
2022-12-06T08:13:10.150Z,1004.08
2022-12-06T08:14:10.134Z,1004.08
2022-12-06T08:15:10.429Z,1004.10
2022-12-06T08:16:10.187Z,1004.09
2022-12-06T08:17:10.123Z,1004.07
2022-12-06T08:18:10.103Z,1004.11
2022-12-06T08:19:10.094Z,1004.10
2022-12-06T08:20:10.064Z,1004.08
2022-12-06T08:21:10.092Z,1004.12
2022-12-06T08:22:10.070Z,1004.08
2022-12-06T08:23:10.058Z,1004.08
2022-12-06T08:24:10.038Z,1004.09
2022-12-06T08:25:10.062Z,1004.07
2022-12-06T08:26:10.029Z,1004.13
2022-12-06T08:27:10.000Z,1004.11
2022-12-06T08:28:10.021Z,1004.09
2022-12-06T08:29:09.964Z,1004.10
2022-12-06T08:30:09.999Z,1004.08
2022-12-06T08:31:10.028Z,1004.11
2022-12-06T08:32:09.946Z,1004.11
2022-12-06T08:33:09.957Z,1004.08
2022-12-06T08:34:09.953Z,1004.10
2022-12-06T08:35:09.928Z,1004.12
2022-12-06T08:36:09.919Z,1004.09
2022-12-06T08:37:09.887Z,1004.13
2022-12-06T08:38:09.894Z,1004.09
2022-12-06T08:39:09.890Z,1004.07
2022-12-06T08:40:09.870Z,1004.10
2022-12-06T08:41:09.844Z,1004.12
2022-12-06T08:42:09.912Z,1004.12
2022-12-06T08:43:09.828Z,1004.17
2022-12-06T08:44:09.863Z,1004.15
2022-12-06T08:45:09.815Z,1004.16
2022-12-06T08:46:09.834Z,1004.22
2022-12-06T08:47:09.781Z,1004.30
2022-12-06T08:48:09.795Z,1004.23
2022-12-06T08:49:09.830Z,1004.24
2022-12-06T08:50:09.765Z,1004.24
2022-12-06T08:51:09.758Z,1004.23
2022-12-06T08:52:09.757Z,1004.19
2022-12-06T08:53:09.731Z,1004.20
2022-12-06T08:54:09.760Z,1004.22
2022-12-06T08:55:09.714Z,1004.22
2022-12-06T08:56:09.699Z,1004.19
2022-12-06T08:57:09.681Z,1004.19
2022-12-06T08:58:09.671Z,1004.22
2022-12-06T08:59:09.678Z,1004.22
2022-12-06T09:00:09.690Z,1004.22
2022-12-06T09:01:09.766Z,1004.19
2022-12-06T09:02:09.707Z,1004.21
2022-12-06T09:03:09.624Z,1004.24
2022-12-06T09:04:09.691Z,1004.22
2022-12-06T09:05:09.686Z,1004.23
2022-12-06T09:06:09.610Z,1004.26
2022-12-06T09:07:11.888Z,1004.24
2022-12-06T09:08:09.675Z,1004.21
2022-12-06T09:09:09.570Z,1004.20
2022-12-06T09:10:09.576Z,1004.21
2022-12-06T09:11:09.541Z,1004.18
2022-12-06T09:12:09.533Z,1004.21
2022-12-06T09:13:09.522Z,1004.20
2022-12-06T09:14:09.511Z,1004.21
2022-12-06T09:15:09.518Z,1004.23
2022-12-06T09:16:09.582Z,1004.26
2022-12-06T09:17:09.508Z,1004.27
2022-12-06T09:18:09.579Z,1004.26
2022-12-06T09:19:09.455Z,1004.26
2022-12-06T09:20:09.879Z,1004.31
2022-12-06T09:21:09.425Z,1004.24
2022-12-06T09:22:09.429Z,1004.29
2022-12-06T09:23:09.444Z,1004.30
2022-12-06T09:24:09.406Z,1004.30
2022-12-06T09:25:09.412Z,1004.27
2022-12-06T09:26:09.418Z,1004.28
2022-12-06T09:27:09.404Z,1004.31
2022-12-06T09:28:09.375Z,1004.25
2022-12-06T09:29:09.375Z,1004.22
2022-12-06T09:30:09.352Z,1004.20
2022-12-06T09:31:09.438Z,1004.19
2022-12-06T09:32:09.332Z,1004.23
2022-12-06T09:33:09.329Z,1004.23
2022-12-06T09:34:09.320Z,1004.24
2022-12-06T09:35:14.927Z,1004.23
2022-12-06T09:36:10.307Z,1004.21
2022-12-06T09:37:09.259Z,1004.24
2022-12-06T09:38:09.279Z,1004.25
2022-12-06T09:39:09.225Z,1004.26
2022-12-06T09:40:09.269Z,1004.25
2022-12-06T09:41:09.241Z,1004.26
2022-12-06T09:42:09.269Z,1004.21
2022-12-06T09:43:09.206Z,1004.20
2022-12-06T09:44:09.204Z,1004.22
2022-12-06T09:45:09.192Z,1004.23
2022-12-06T09:46:09.232Z,1004.21
2022-12-06T09:47:09.186Z,1004.23
2022-12-06T09:48:09.172Z,1004.22
2022-12-06T09:49:09.143Z,1004.20
2022-12-06T09:50:09.153Z,1004.23
2022-12-06T09:51:09.125Z,1004.19
2022-12-06T09:52:09.139Z,1004.22
2022-12-06T09:53:09.109Z,1004.24
2022-12-06T09:54:09.114Z,1004.26
2022-12-06T09:55:09.084Z,1004.27
2022-12-06T09:56:09.087Z,1004.26
2022-12-06T09:57:09.078Z,1004.27
2022-12-06T09:58:09.054Z,1004.26
2022-12-06T09:59:09.043Z,1004.28
2022-12-06T10:00:11.860Z,1004.27
2022-12-06T10:01:09.030Z,1004.26
2022-12-06T10:02:09.099Z,1004.22
2022-12-06T10:03:09.057Z,1004.22
2022-12-06T10:04:08.988Z,1004.24
2022-12-06T10:05:08.986Z,1004.24
2022-12-06T10:06:09.001Z,1004.22
2022-12-06T10:07:08.983Z,1004.22
2022-12-06T10:08:09.161Z,1004.20
2022-12-06T10:09:09.064Z,1004.22
2022-12-06T10:10:08.925Z,1004.20
2022-12-06T10:11:09.041Z,1004.18
2022-12-06T10:12:08.917Z,1004.16
2022-12-06T10:13:08.920Z,1004.15
2022-12-06T10:14:08.893Z,1004.13
2022-12-06T10:15:08.920Z,1004.16
2022-12-06T10:16:08.943Z,1004.10
2022-12-06T10:17:09.655Z,1004.10
2022-12-06T10:18:08.854Z,1004.18
2022-12-06T10:19:08.832Z,1004.16
2022-12-06T10:20:08.843Z,1004.15
2022-12-06T10:21:08.794Z,1004.14
2022-12-06T10:22:08.830Z,1004.08
2022-12-06T10:23:08.776Z,1004.10
2022-12-06T10:24:08.828Z,1004.16
2022-12-06T10:25:08.777Z,1004.16
2022-12-06T10:26:08.747Z,1004.13
2022-12-06T10:27:08.750Z,1004.11
2022-12-06T10:28:08.753Z,1004.13
2022-12-06T10:29:08.740Z,1004.14
2022-12-06T10:30:08.719Z,1004.18
2022-12-06T10:31:08.733Z,1004.16
2022-12-06T10:32:08.717Z,1004.20
2022-12-06T10:33:08.680Z,1004.15
2022-12-06T10:34:08.712Z,1004.16
2022-12-06T10:35:08.694Z,1004.17
2022-12-06T10:36:08.656Z,1004.16
2022-12-06T10:37:08.665Z,1004.20
2022-12-06T10:38:08.656Z,1004.20
2022-12-06T10:39:08.633Z,1004.22
2022-12-06T10:40:08.627Z,1004.20
2022-12-06T10:41:08.606Z,1004.22
2022-12-06T10:42:08.602Z,1004.22
2022-12-06T10:43:08.598Z,1004.28
2022-12-06T10:44:08.605Z,1004.23
2022-12-06T10:45:08.564Z,1004.18
2022-12-06T10:46:09.385Z,1004.23
2022-12-06T10:47:08.614Z,1004.21
2022-12-06T10:48:08.543Z,1004.20
2022-12-06T10:49:08.524Z,1004.18
2022-12-06T10:50:08.520Z,1004.22
2022-12-06T10:51:08.498Z,1004.20
2022-12-06T10:52:09.526Z,1004.18
2022-12-06T10:53:10.347Z,1004.22
2022-12-06T10:54:08.499Z,1004.23
2022-12-06T10:55:08.457Z,1004.20
2022-12-06T10:56:08.449Z,1004.16
2022-12-06T10:57:08.434Z,1004.19
2022-12-06T10:58:08.431Z,1004.17
2022-12-06T10:59:08.420Z,1004.15
2022-12-06T11:00:14.658Z,1004.19
2022-12-06T11:01:09.477Z,1004.21
2022-12-06T11:02:08.481Z,1004.22
2022-12-06T11:03:08.379Z,1004.25
2022-12-06T11:04:08.382Z,1004.27
2022-12-06T11:05:08.381Z,1004.28
2022-12-06T11:06:08.353Z,1004.25
2022-12-06T11:07:08.321Z,1004.26
2022-12-06T11:08:08.378Z,1004.28
2022-12-06T11:09:08.333Z,1004.24
2022-12-06T11:10:08.323Z,1004.28
2022-12-06T11:11:08.279Z,1004.27
2022-12-06T11:12:08.283Z,1004.27
2022-12-06T11:13:08.272Z,1004.26
2022-12-06T11:14:08.292Z,1004.29
2022-12-06T11:15:08.297Z,1004.23
2022-12-06T11:16:08.325Z,1004.20
2022-12-06T11:17:08.241Z,1004.20
2022-12-06T11:18:08.229Z,1004.16
2022-12-06T11:19:08.199Z,1004.18
2022-12-06T11:20:08.207Z,1004.14
2022-12-06T11:21:08.212Z,1004.13
2022-12-06T11:22:08.201Z,1004.17
2022-12-06T11:23:08.153Z,1004.13
2022-12-06T11:24:08.164Z,1004.13
2022-12-06T11:25:08.151Z,1004.11
2022-12-06T11:26:08.152Z,1004.14
2022-12-06T11:27:08.138Z,1004.07
2022-12-06T11:28:08.113Z,1004.05
2022-12-06T11:29:08.342Z,1004.08
2022-12-06T11:30:08.083Z,1004.13
2022-12-06T11:31:08.157Z,1004.08
2022-12-06T11:32:08.097Z,1004.07
2022-12-06T11:33:08.071Z,1004.00
2022-12-06T11:34:08.068Z,1004.04
2022-12-06T11:35:08.033Z,1004.00
2022-12-06T11:36:08.043Z,1004.00
2022-12-06T11:37:08.047Z,1004.04
2022-12-06T11:38:08.033Z,1004.06
2022-12-06T11:39:07.997Z,1004.07
2022-12-06T11:40:08.032Z,1004.04
2022-12-06T11:41:08.004Z,1004.08
2022-12-06T11:42:07.969Z,1004.10
2022-12-06T11:43:07.973Z,1004.09
2022-12-06T11:44:07.960Z,1004.10
2022-12-06T11:45:08.091Z,1004.08
2022-12-06T11:46:07.955Z,1004.12
2022-12-06T11:47:08.001Z,1004.09
2022-12-06T11:48:07.908Z,1003.99
2022-12-06T11:49:07.884Z,1004.03
2022-12-06T11:50:10.180Z,1004.00
2022-12-06T11:51:08.905Z,1004.04
2022-12-06T11:52:07.926Z,1004.02
2022-12-06T11:53:07.864Z,1004.04
2022-12-06T11:54:07.862Z,1003.98
2022-12-06T11:55:07.813Z,1004.06
2022-12-06T11:56:07.866Z,1004.05
2022-12-06T11:57:07.837Z,1004.03
2022-12-06T11:58:07.847Z,1004.01
2022-12-06T11:59:07.776Z,1004.00
2022-12-06T12:00:07.801Z,1004.00
2022-12-06T12:01:09.989Z,1004.02
2022-12-06T12:02:07.851Z,1004.05
2022-12-06T12:03:07.775Z,1004.00
2022-12-06T12:04:07.752Z,1003.99
2022-12-06T12:05:07.774Z,1003.98